Svea, Minnesota
Current Conditions -  °F | °C
As of 3:14 AM on Thursday 23 Oct 2014 (Local Time) from KOVL Reporting Station
Clear Clear  
Wind Chill: 52°   Ceiling: Unl
Heat Index: 52°   Visibility: 7mi
Dew Point: 50°   Wind: 5mph
Humidity: 94%   Direction: 230°SW
Pressure: 29.98"   Gusts: NA
Location:  44.9371°N, 95.0539°W
Report Text: KOVL 230814Z AUTO 23004KT 7SM CLR 11/10 A2998 RMK AO2
Loading
Personal Weather Stations






























Interactive Weather Map
Tropical Storm Tracking
New forecast layout! Learn more

10-Day Weather Forecast

Advertisements
Track Severe Weather on mobile